sensor_id;sensor_type;location;lat;lon;timestamp;pressure;altitude;pressure_sealevel;temperature;humidity
6413;BME280;3239;48.714;9.472;2022-09-20T00:00:42;99509.00;;;9.45;100.00
6413;BME280;3239;48.714;9.472;2022-09-20T00:03:09;99502.44;;;9.37;100.00
6413;BME280;3239;48.714;9.472;2022-09-20T00:05:37;99504.38;;;9.31;100.00
6413;BME280;3239;48.714;9.472;2022-09-20T00:08:05;99492.66;;;9.30;100.00
6413;BME280;3239;48.714;9.472;2022-09-20T00:10:33;99491.19;;;9.29;100.00
6413;BME280;3239;48.714;9.472;2022-09-20T00:13:02;99497.88;;;9.28;100.00
6413;BME280;3239;48.714;9.472;2022-09-20T00:15:29;99502.06;;;9.24;100.00
6413;BME280;3239;48.714;9.472;2022-09-20T00:17:55;99496.78;;;9.20;100.00
6413;BME280;3239;48.714;9.472;2022-09-20T00:20:22;99497.41;;;9.30;100.00
6413;BME280;3239;48.714;9.472;2022-09-20T00:22:48;99502.19;;;9.35;100.00
6413;BME280;3239;48.714;9.472;2022-09-20T00:25:16;99506.44;;;9.41;100.00
6413;BME280;3239;48.714;9.472;2022-09-20T00:27:42;99509.72;;;9.45;100.00
6413;BME280;3239;48.714;9.472;2022-09-20T00:30:10;99504.25;;;9.45;100.00
6413;BME280;3239;48.714;9.472;2022-09-20T00:32:36;99513.00;;;9.49;100.00
6413;BME280;3239;48.714;9.472;2022-09-20T00:35:03;99499.25;;;9.44;100.00
6413;BME280;3239;48.714;9.472;2022-09-20T00:37:40;99502.75;;;9.44;100.00
6413;BME280;3239;48.714;9.472;2022-09-20T00:40:14;99495.03;;;9.43;100.00
6413;BME280;3239;48.714;9.472;2022-09-20T00:42:40;99507.97;;;9.42;100.00
6413;BME280;3239;48.714;9.472;2022-09-20T00:45:23;99498.03;;;9.45;100.00
6413;BME280;3239;48.714;9.472;2022-09-20T00:55:49;99500.16;;;9.30;100.00
6413;BME280;3239;48.714;9.472;2022-09-20T00:58:17;99499.38;;;9.29;100.00
6413;BME280;3239;48.714;9.472;2022-09-20T01:00:44;99496.16;;;9.31;100.00
6413;BME280;3239;48.714;9.472;2022-09-20T01:03:12;99484.22;;;9.28;100.00
6413;BME280;3239;48.714;9.472;2022-09-20T01:05:39;99485.13;;;9.20;100.00
6413;BME280;3239;48.714;9.472;2022-09-20T01:08:05;99482.44;;;9.25;100.00
6413;BME280;3239;48.714;9.472;2022-09-20T01:10:33;99481.84;;;9.16;100.00
6413;BME280;3239;48.714;9.472;2022-09-20T01:12:59;99488.34;;;9.18;100.00
6413;BME280;3239;48.714;9.472;2022-09-20T01:15:27;99483.19;;;9.26;100.00
6413;BME280;3239;48.714;9.472;2022-09-20T01:17:56;99489.13;;;9.24;100.00
6413;BME280;3239;48.714;9.472;2022-09-20T01:20:29;99487.41;;;9.27;100.00
6413;BME280;3239;48.714;9.472;2022-09-20T01:23:18;99475.25;;;9.28;100.00
6413;BME280;3239;48.714;9.472;2022-09-20T01:28:26;99473.28;;;9.28;100.00
6413;BME280;3239;48.714;9.472;2022-09-20T01:33:51;99462.94;;;9.12;100.00
6413;BME280;3239;48.714;9.472;2022-09-20T01:36:29;99458.38;;;9.04;100.00
6413;BME280;3239;48.714;9.472;2022-09-20T01:42:12;99459.44;;;9.12;100.00
6413;BME280;3239;48.714;9.472;2022-09-20T01:45:00;99452.00;;;9.12;100.00
6413;BME280;3239;48.714;9.472;2022-09-20T01:57:03;99458.50;;;9.20;100.00
6413;BME280;3239;48.714;9.472;2022-09-20T02:09:31;99431.19;;;8.69;100.00
6413;BME280;3239;48.714;9.472;2022-09-20T02:12:31;99424.34;;;8.79;100.00
6413;BME280;3239;48.714;9.472;2022-09-20T02:21:37;99411.19;;;8.83;100.00
6413;BME280;3239;48.714;9.472;2022-09-20T02:24:34;99411.19;;;8.83;100.00
6413;BME280;3239;48.714;9.472;2022-09-20T02:41:35;99396.72;;;8.77;100.00
6413;BME280;3239;48.714;9.472;2022-09-20T02:44:37;99401.28;;;8.86;100.00
6413;BME280;3239;48.714;9.472;2022-09-20T02:53:13;99384.84;;;8.80;100.00
6413;BME280;3239;48.714;9.472;2022-09-20T02:58:58;99372.94;;;8.58;100.00
6413;BME280;3239;48.714;9.472;2022-09-20T03:10:39;99357.22;;;8.27;100.00
6413;BME280;3239;48.714;9.472;2022-09-20T03:13:45;99356.19;;;8.25;100.00
6413;BME280;3239;48.714;9.472;2022-09-20T03:20:04;99356.94;;;8.25;100.00
6413;BME280;3239;48.714;9.472;2022-09-20T03:22:54;99353.81;;;8.32;100.00
6413;BME280;3239;48.714;9.472;2022-09-20T03:26:09;99358.47;;;8.52;100.00
6413;BME280;3239;48.714;9.472;2022-09-20T03:29:24;99352.75;;;8.50;100.00
6413;BME280;3239;48.714;9.472;2022-09-20T03:34:59;99342.06;;;8.26;100.00
6413;BME280;3239;48.714;9.472;2022-09-20T03:37:45;99334.94;;;8.34;100.00
6413;BME280;3239;48.714;9.472;2022-09-20T03:40:52;99336.19;;;8.33;100.00
6413;BME280;3239;48.714;9.472;2022-09-20T03:46:26;99335.28;;;8.42;100.00
6413;BME280;3239;48.714;9.472;2022-09-20T03:49:29;99333.81;;;8.46;100.00
6413;BME280;3239;48.714;9.472;2022-09-20T04:13:41;99303.19;;;8.17;100.00
6413;BME280;3239;48.714;9.472;2022-09-20T04:16:38;99304.88;;;8.09;100.00
6413;BME280;3239;48.714;9.472;2022-09-20T04:22:19;99295.59;;;8.21;100.00
6413;BME280;3239;48.714;9.472;2022-09-20T04:25:32;99294.69;;;8.29;100.00
6413;BME280;3239;48.714;9.472;2022-09-20T04:28:01;99289.03;;;8.13;100.00
6413;BME280;3239;48.714;9.472;2022-09-20T04:30:32;99295.56;;;8.01;100.00
6413;BME280;3239;48.714;9.472;2022-09-20T04:33:27;99295.66;;;8.06;100.00
6413;BME280;3239;48.714;9.472;2022-09-20T04:39:43;99290.94;;;8.07;100.00
6413;BME280;3239;48.714;9.472;2022-09-20T04:48:54;99295.44;;;8.10;100.00
6413;BME280;3239;48.714;9.472;2022-09-20T04:52:22;99302.94;;;8.15;100.00
6413;BME280;3239;48.714;9.472;2022-09-20T05:01:46;99317.81;;;8.14;100.00
6413;BME280;3239;48.714;9.472;2022-09-20T05:10:47;99337.63;;;8.09;100.00
6413;BME280;3239;48.714;9.472;2022-09-20T05:13:59;99354.25;;;8.11;100.00
6413;BME280;3239;48.714;9.472;2022-09-20T05:20:41;99378.41;;;8.18;100.00
6413;BME280;3239;48.714;9.472;2022-09-20T05:26:13;99396.84;;;8.23;100.00
6413;BME280;3239;48.714;9.472;2022-09-20T05:31:46;99406.66;;;8.15;100.00
6413;BME280;3239;48.714;9.472;2022-09-20T05:51:12;99426.88;;;8.23;100.00
6413;BME280;3239;48.714;9.472;2022-09-20T06:00:10;99442.16;;;8.15;100.00
6413;BME280;3239;48.714;9.472;2022-09-20T06:23:27;99491.84;;;8.19;100.00
6413;BME280;3239;48.714;9.472;2022-09-20T06:26:09;99481.09;;;8.30;100.00
6413;BME280;3239;48.714;9.472;2022-09-20T06:28:43;99487.97;;;8.25;100.00
6413;BME280;3239;48.714;9.472;2022-09-20T06:31:11;99480.09;;;8.27;100.00
6413;BME280;3239;48.714;9.472;2022-09-20T06:33:52;99494.84;;;8.55;100.00
6413;BME280;3239;48.714;9.472;2022-09-20T06:36:31;99497.22;;;8.88;100.00
6413;BME280;3239;48.714;9.472;2022-09-20T06:39:46;99487.91;;;8.80;100.00
6413;BME280;3239;48.714;9.472;2022-09-20T06:42:33;99492.19;;;9.06;100.00
6413;BME280;3239;48.714;9.472;2022-09-20T06:44:58;99490.50;;;8.89;100.00
6413;BME280;3239;48.714;9.472;2022-09-20T06:47:24;99496.09;;;9.25;100.00
6413;BME280;3239;48.714;9.472;2022-09-20T06:49:51;99491.16;;;9.55;100.00
6413;BME280;3239;48.714;9.472;2022-09-20T06:52:20;99488.91;;;9.84;100.00
6413;BME280;3239;48.714;9.472;2022-09-20T06:54:52;99472.75;;;9.86;100.00
6413;BME280;3239;48.714;9.472;2022-09-20T06:57:32;99452.72;;;9.69;100.00
6413;BME280;3239;48.714;9.472;2022-09-20T06:59:59;99445.03;;;10.10;100.00
6413;BME280;3239;48.714;9.472;2022-09-20T07:02:25;99422.22;;;10.29;100.00
6413;BME280;3239;48.714;9.472;2022-09-20T07:04:51;99408.09;;;10.47;100.00
6413;BME280;3239;48.714;9.472;2022-09-20T07:07:20;99366.16;;;10.14;100.00
6413;BME280;3239;48.714;9.472;2022-09-20T07:09:46;99342.91;;;9.98;100.00
6413;BME280;3239;48.714;9.472;2022-09-20T07:12:12;99345.56;;;10.40;100.00
6413;BME280;3239;48.714;9.472;2022-09-20T07:14:38;99336.66;;;10.89;100.00
6413;BME280;3239;48.714;9.472;2022-09-20T07:17:04;99293.72;;;10.20;100.00
6413;BME280;3239;48.714;9.472;2022-09-20T07:19:31;99281.34;;;9.72;100.00
6413;BME280;3239;48.714;9.472;2022-09-20T07:21:56;99293.44;;;10.13;100.00
6413;BME280;3239;48.714;9.472;2022-09-20T07:24:22;99303.72;;;10.34;100.00
6413;BME280;3239;48.714;9.472;2022-09-20T07:27:02;99298.75;;;10.38;100.00
6413;BME280;3239;48.714;9.472;2022-09-20T07:29:29;99303.28;;;10.91;100.00
6413;BME280;3239;48.714;9.472;2022-09-20T07:31:56;99288.06;;;10.90;100.00
6413;BME280;3239;48.714;9.472;2022-09-20T07:34:23;99284.47;;;11.50;100.00
6413;BME280;3239;48.714;9.472;2022-09-20T07:36:49;99262.34;;;12.05;100.00
6413;BME280;3239;48.714;9.472;2022-09-20T07:39:16;99218.91;;;12.03;100.00
6413;BME280;3239;48.714;9.472;2022-09-20T07:41:42;99183.44;;;10.69;100.00
6413;BME280;3239;48.714;9.472;2022-09-20T07:44:13;99194.63;;;10.88;100.00
6413;BME280;3239;48.714;9.472;2022-09-20T07:46:57;99194.50;;;11.37;100.00
6413;BME280;3239;48.714;9.472;2022-09-20T07:49:25;99203.81;;;11.75;100.00
6413;BME280;3239;48.714;9.472;2022-09-20T07:51:52;99186.53;;;12.85;100.00
6413;BME280;3239;48.714;9.472;2022-09-20T07:54:19;99137.03;;;13.09;100.00
6413;BME280;3239;48.714;9.472;2022-09-20T07:56:45;99092.75;;;13.68;100.00
6413;BME280;3239;48.714;9.472;2022-09-20T07:59:12;99034.94;;;12.70;100.00
6413;BME280;3239;48.714;9.472;2022-09-20T08:01:38;99028.19;;;12.23;100.00
6413;BME280;3239;48.714;9.472;2022-09-20T08:04:09;99051.97;;;11.91;100.00
6413;BME280;3239;48.714;9.472;2022-09-20T08:06:39;99059.38;;;12.01;100.00
6413;BME280;3239;48.714;9.472;2022-09-20T08:09:07;99086.59;;;12.29;100.00
6413;BME280;3239;48.714;9.472;2022-09-20T08:11:33;99087.69;;;12.92;100.00
6413;BME280;3239;48.714;9.472;2022-09-20T08:14:01;99066.00;;;12.89;100.00
6413;BME280;3239;48.714;9.472;2022-09-20T08:16:29;99051.31;;;12.09;100.00
6413;BME280;3239;48.714;9.472;2022-09-20T08:19:00;99051.84;;;13.22;100.00
6413;BME280;3239;48.714;9.472;2022-09-20T08:21:31;99025.91;;;12.93;100.00
6413;BME280;3239;48.714;9.472;2022-09-20T08:23:58;99018.97;;;12.68;100.00
6413;BME280;3239;48.714;9.472;2022-09-20T08:26:26;99009.31;;;12.62;100.00
6413;BME280;3239;48.714;9.472;2022-09-20T08:28:55;99018.34;;;13.55;100.00
6413;BME280;3239;48.714;9.472;2022-09-20T08:31:24;99007.00;;;15.20;100.00
6413;BME280;3239;48.714;9.472;2022-09-20T08:33:51;98953.03;;;14.39;100.00
6413;BME280;3239;48.714;9.472;2022-09-20T08:36:21;98936.22;;;13.85;100.00
6413;BME280;3239;48.714;9.472;2022-09-20T08:38:48;98953.38;;;13.33;100.00
6413;BME280;3239;48.714;9.472;2022-09-20T08:41:31;98953.72;;;13.87;100.00
6413;BME280;3239;48.714;9.472;2022-09-20T08:44:23;98937.94;;;15.12;100.00
6413;BME280;3239;48.714;9.472;2022-09-20T08:49:43;98870.56;;;16.76;100.00
6413;BME280;3239;48.714;9.472;2022-09-20T08:52:17;98868.88;;;15.94;100.00
6413;BME280;3239;48.714;9.472;2022-09-20T08:54:43;98868.69;;;16.28;100.00
6413;BME280;3239;48.714;9.472;2022-09-20T08:57:15;98864.72;;;15.80;100.00
6413;BME280;3239;48.714;9.472;2022-09-20T08:59:42;98844.25;;;17.35;100.00
6413;BME280;3239;48.714;9.472;2022-09-20T09:02:20;98819.38;;;18.34;100.00
6413;BME280;3239;48.714;9.472;2022-09-20T09:04:48;98832.81;;;17.46;100.00
6413;BME280;3239;48.714;9.472;2022-09-20T09:07:16;98821.84;;;17.93;100.00
6413;BME280;3239;48.714;9.472;2022-09-20T09:09:45;98825.38;;;16.30;100.00
6413;BME280;3239;48.714;9.472;2022-09-20T09:12:29;98836.63;;;16.90;100.00
6413;BME280;3239;48.714;9.472;2022-09-20T09:15:04;98839.19;;;16.30;100.00
6413;BME280;3239;48.714;9.472;2022-09-20T09:17:42;98853.03;;;16.73;100.00
6413;BME280;3239;48.714;9.472;2022-09-20T09:20:18;98828.34;;;17.80;100.00
6413;BME280;3239;48.714;9.472;2022-09-20T09:22:47;98824.31;;;18.75;100.00
6413;BME280;3239;48.714;9.472;2022-09-20T09:25:32;98825.41;;;17.03;100.00
6413;BME280;3239;48.714;9.472;2022-09-20T09:30:43;98817.19;;;15.82;100.00
6413;BME280;3239;48.714;9.472;2022-09-20T09:33:43;98836.53;;;13.99;100.00
6413;BME280;3239;48.714;9.472;2022-09-20T09:38:44;98848.28;;;14.72;100.00
6413;BME280;3239;48.714;9.472;2022-09-20T09:41:30;98844.41;;;14.55;100.00
6413;BME280;3239;48.714;9.472;2022-09-20T09:44:08;98851.09;;;14.59;100.00
6413;BME280;3239;48.714;9.472;2022-09-20T09:46:43;98841.28;;;14.25;100.00
6413;BME280;3239;48.714;9.472;2022-09-20T09:49:24;98840.84;;;14.47;100.00
6413;BME280;3239;48.714;9.472;2022-09-20T09:52:17;98838.22;;;14.62;100.00
6413;BME280;3239;48.714;9.472;2022-09-20T09:54:52;98839.91;;;14.78;100.00
6413;BME280;3239;48.714;9.472;2022-09-20T09:57:53;98835.66;;;14.30;100.00
6413;BME280;3239;48.714;9.472;2022-09-20T10:00:24;98838.44;;;14.30;100.00
6413;BME280;3239;48.714;9.472;2022-09-20T10:06:36;98845.91;;;13.39;100.00
6413;BME280;3239;48.714;9.472;2022-09-20T10:09:29;98858.56;;;13.73;100.00
6413;BME280;3239;48.714;9.472;2022-09-20T10:12:29;98843.19;;;13.52;100.00
6413;BME280;3239;48.714;9.472;2022-09-20T10:15:41;98851.47;;;13.91;100.00
6413;BME280;3239;48.714;9.472;2022-09-20T10:21:21;98832.72;;;14.62;100.00
6413;BME280;3239;48.714;9.472;2022-09-20T10:24:46;98831.91;;;15.28;100.00
6413;BME280;3239;48.714;9.472;2022-09-20T10:30:24;98820.56;;;15.60;100.00
6413;BME280;3239;48.714;9.472;2022-09-20T10:33:34;98814.28;;;15.11;100.00
6413;BME280;3239;48.714;9.472;2022-09-20T10:36:41;98820.97;;;17.00;100.00
6413;BME280;3239;48.714;9.472;2022-09-20T10:39:33;98800.34;;;18.95;100.00
6413;BME280;3239;48.714;9.472;2022-09-20T10:45:45;98771.34;;;21.57;68.49
6413;BME280;3239;48.714;9.472;2022-09-20T10:48:40;98773.09;;;20.71;72.43
6413;BME280;3239;48.714;9.472;2022-09-20T10:51:34;98761.06;;;17.95;72.82
6413;BME280;3239;48.714;9.472;2022-09-20T10:54:35;98779.78;;;18.26;88.27
6413;BME280;3239;48.714;9.472;2022-09-20T11:00:20;98782.75;;;17.06;98.98
6413;BME280;3239;48.714;9.472;2022-09-20T11:08:35;98784.25;;;15.84;97.70
6413;BME280;3239;48.714;9.472;2022-09-20T11:11:20;98785.84;;;16.15;100.00
6413;BME280;3239;48.714;9.472;2022-09-20T11:14:12;98779.09;;;15.88;100.00
6413;BME280;3239;48.714;9.472;2022-09-20T11:16:55;98782.94;;;16.20;100.00
6413;BME280;3239;48.714;9.472;2022-09-20T11:22:59;98779.84;;;15.88;97.64
6413;BME280;3239;48.714;9.472;2022-09-20T11:25:37;98773.72;;;15.47;100.00
6413;BME280;3239;48.714;9.472;2022-09-20T11:28:31;98781.66;;;15.30;100.00
6413;BME280;3239;48.714;9.472;2022-09-20T11:31:09;98784.81;;;15.54;100.00
6413;BME280;3239;48.714;9.472;2022-09-20T11:33:56;98791.34;;;15.72;100.00
6413;BME280;3239;48.714;9.472;2022-09-20T11:36:58;98777.91;;;15.40;100.00
6413;BME280;3239;48.714;9.472;2022-09-20T11:41:57;98774.59;;;15.21;100.00
6413;BME280;3239;48.714;9.472;2022-09-20T11:44:25;98780.66;;;15.40;100.00
6413;BME280;3239;48.714;9.472;2022-09-20T11:51:10;98778.34;;;15.31;100.00
6413;BME280;3239;48.714;9.472;2022-09-20T11:53:34;98778.78;;;15.35;100.00
6413;BME280;3239;48.714;9.472;2022-09-20T11:56:27;98777.22;;;17.14;100.00
6413;BME280;3239;48.714;9.472;2022-09-20T11:58:58;98773.63;;;18.75;90.13
6413;BME280;3239;48.714;9.472;2022-09-20T12:01:30;98768.41;;;18.79;80.85
6413;BME280;3239;48.714;9.472;2022-09-20T12:04:24;98752.03;;;20.24;70.52
6413;BME280;3239;48.714;9.472;2022-09-20T12:07:01;98756.81;;;19.22;63.16
6413;BME280;3239;48.714;9.472;2022-09-20T12:09:34;98748.03;;;20.18;64.30
6413;BME280;3239;48.714;9.472;2022-09-20T12:12:43;98747.84;;;21.50;55.16
6413;BME280;3239;48.714;9.472;2022-09-20T12:15:24;98742.06;;;19.53;52.54
6413;BME280;3239;48.714;9.472;2022-09-20T12:28:59;98737.81;;;18.22;66.61
6413;BME280;3239;48.714;9.472;2022-09-20T12:39:28;98733.47;;;17.35;75.81
6413;BME280;3239;48.714;9.472;2022-09-20T13:11:52;98726.19;;;18.56;59.24
6413;BME280;3239;48.714;9.472;2022-09-20T13:14:31;98711.84;;;17.26;64.81
6413;BME280;3239;48.714;9.472;2022-09-20T13:17:06;98711.72;;;16.64;74.85
6413;BME280;3239;48.714;9.472;2022-09-20T13:19:44;98720.41;;;16.02;82.35
6413;BME280;3239;48.714;9.472;2022-09-20T13:22:25;98721.47;;;16.50;93.33
6413;BME280;3239;48.714;9.472;2022-09-20T13:24:57;98719.28;;;16.71;91.55
6413;BME280;3239;48.714;9.472;2022-09-20T13:27:30;98720.19;;;16.66;92.26
6413;BME280;3239;48.714;9.472;2022-09-20T13:30:29;98729.06;;;16.79;99.65
6413;BME280;3239;48.714;9.472;2022-09-20T13:33:22;98729.81;;;16.95;98.76
6413;BME280;3239;48.714;9.472;2022-09-20T13:35:53;98720.59;;;16.77;95.38
6413;BME280;3239;48.714;9.472;2022-09-20T13:38:25;98726.47;;;16.59;100.00
6413;BME280;3239;48.714;9.472;2022-09-20T13:41:04;98723.69;;;17.19;92.97
6413;BME280;3239;48.714;9.472;2022-09-20T13:43:43;98719.09;;;16.76;88.45
6413;BME280;3239;48.714;9.472;2022-09-20T13:48:42;98723.34;;;16.77;85.86
6413;BME280;3239;48.714;9.472;2022-09-20T13:51:18;98715.97;;;16.80;96.10
6413;BME280;3239;48.714;9.472;2022-09-20T13:53:44;98718.69;;;17.47;99.22
6413;BME280;3239;48.714;9.472;2022-09-20T13:56:26;98716.97;;;17.67;94.48
6413;BME280;3239;48.714;9.472;2022-09-20T13:58:53;98711.09;;;17.63;91.65
6413;BME280;3239;48.714;9.472;2022-09-20T14:01:33;98717.72;;;18.14;84.55
6413;BME280;3239;48.714;9.472;2022-09-20T14:04:15;98712.41;;;20.16;72.39
6413;BME280;3239;48.714;9.472;2022-09-20T14:06:41;98719.28;;;21.04;61.33
6413;BME280;3239;48.714;9.472;2022-09-20T14:09:34;98722.53;;;22.62;55.88
6413;BME280;3239;48.714;9.472;2022-09-20T14:12:03;98715.19;;;20.69;55.86
6413;BME280;3239;48.714;9.472;2022-09-20T14:14:30;98715.22;;;20.43;61.74
6413;BME280;3239;48.714;9.472;2022-09-20T14:17:00;98723.41;;;19.46;62.14
6413;BME280;3239;48.714;9.472;2022-09-20T14:19:32;98720.94;;;18.92;73.80
6413;BME280;3239;48.714;9.472;2022-09-20T14:22:05;98723.56;;;18.26;77.09
6413;BME280;3239;48.714;9.472;2022-09-20T14:24:36;98718.09;;;18.50;75.00
6413;BME280;3239;48.714;9.472;2022-09-20T14:27:19;98715.81;;;19.05;70.76
6413;BME280;3239;48.714;9.472;2022-09-20T14:29:53;98712.69;;;17.81;75.33
6413;BME280;3239;48.714;9.472;2022-09-20T14:35:17;98713.97;;;18.83;70.01
6413;BME280;3239;48.714;9.472;2022-09-20T14:37:50;98724.72;;;18.55;78.50
6413;BME280;3239;48.714;9.472;2022-09-20T14:40:23;98724.66;;;17.91;81.17
6413;BME280;3239;48.714;9.472;2022-09-20T14:43:03;98727.63;;;17.85;85.81
6413;BME280;3239;48.714;9.472;2022-09-20T14:45:31;98722.22;;;17.10;88.33
6413;BME280;3239;48.714;9.472;2022-09-20T14:50:36;98728.38;;;15.70;100.00
6413;BME280;3239;48.714;9.472;2022-09-20T14:53:24;98724.31;;;15.71;100.00
6413;BME280;3239;48.714;9.472;2022-09-20T14:58:28;98726.78;;;15.47;100.00
6413;BME280;3239;48.714;9.472;2022-09-20T15:04:22;98732.63;;;14.95;100.00
6413;BME280;3239;48.714;9.472;2022-09-20T15:06:50;98749.47;;;14.84;100.00
6413;BME280;3239;48.714;9.472;2022-09-20T15:09:18;98753.75;;;14.72;100.00
6413;BME280;3239;48.714;9.472;2022-09-20T15:11:45;98743.53;;;14.80;100.00
6413;BME280;3239;48.714;9.472;2022-09-20T15:14:10;98748.72;;;14.63;100.00
6413;BME280;3239;48.714;9.472;2022-09-20T15:16:36;98751.38;;;14.35;100.00
6413;BME280;3239;48.714;9.472;2022-09-20T15:19:02;98750.88;;;14.57;100.00
6413;BME280;3239;48.714;9.472;2022-09-20T15:21:30;98757.72;;;14.43;100.00
6413;BME280;3239;48.714;9.472;2022-09-20T15:23:56;98756.69;;;14.53;100.00
6413;BME280;3239;48.714;9.472;2022-09-20T15:26:22;98749.53;;;14.50;100.00
6413;BME280;3239;48.714;9.472;2022-09-20T15:28:48;98743.50;;;14.39;100.00
6413;BME280;3239;48.714;9.472;2022-09-20T15:31:14;98746.28;;;14.39;100.00
6413;BME280;3239;48.714;9.472;2022-09-20T15:33:41;98741.16;;;14.43;100.00
6413;BME280;3239;48.714;9.472;2022-09-20T15:36:09;98747.88;;;14.34;100.00
6413;BME280;3239;48.714;9.472;2022-09-20T15:38:34;98748.94;;;14.31;100.00
6413;BME280;3239;48.714;9.472;2022-09-20T15:41:01;98739.69;;;14.42;100.00
6413;BME280;3239;48.714;9.472;2022-09-20T15:43:31;98757.72;;;14.43;100.00
6413;BME280;3239;48.714;9.472;2022-09-20T15:46:22;98755.69;;;14.43;100.00
6413;BME280;3239;48.714;9.472;2022-09-20T15:48:49;98746.28;;;14.39;100.00
6413;BME280;3239;48.714;9.472;2022-09-20T15:51:15;98740.41;;;14.22;100.00
6413;BME280;3239;48.714;9.472;2022-09-20T15:53:44;98748.31;;;14.38;100.00
6413;BME280;3239;48.714;9.472;2022-09-20T15:56:17;98748.34;;;14.46;100.00
6413;BME280;3239;48.714;9.472;2022-09-20T15:58:52;98742.03;;;14.38;100.00
6413;BME280;3239;48.714;9.472;2022-09-20T16:01:26;98738.41;;;14.43;100.00
6413;BME280;3239;48.714;9.472;2022-09-20T16:03:53;98744.22;;;14.06;100.00
6413;BME280;3239;48.714;9.472;2022-09-20T16:06:19;98744.59;;;14.36;100.00
6413;BME280;3239;48.714;9.472;2022-09-20T16:08:45;98751.50;;;14.29;100.00
6413;BME280;3239;48.714;9.472;2022-09-20T16:11:18;98752.38;;;14.24;100.00
6413;BME280;3239;48.714;9.472;2022-09-20T16:13:56;98751.66;;;13.98;100.00
6413;BME280;3239;48.714;9.472;2022-09-20T16:16:23;98754.03;;;14.27;100.00
6413;BME280;3239;48.714;9.472;2022-09-20T16:18:49;98752.06;;;14.15;100.00
6413;BME280;3239;48.714;9.472;2022-09-20T16:21:36;98757.88;;;14.11;100.00
6413;BME280;3239;48.714;9.472;2022-09-20T16:24:04;98753.44;;;13.95;100.00
6413;BME280;3239;48.714;9.472;2022-09-20T16:26:30;98754.41;;;13.98;100.00
6413;BME280;3239;48.714;9.472;2022-09-20T16:28:57;98757.56;;;14.15;100.00
6413;BME280;3239;48.714;9.472;2022-09-20T16:31:59;98766.69;;;13.97;100.00
6413;BME280;3239;48.714;9.472;2022-09-20T16:34:35;98755.13;;;14.11;100.00
6413;BME280;3239;48.714;9.472;2022-09-20T16:37:12;98756.38;;;14.10;100.00
6413;BME280;3239;48.714;9.472;2022-09-20T16:39:41;98766.47;;;14.08;100.00
6413;BME280;3239;48.714;9.472;2022-09-20T16:42:09;98757.47;;;13.94;100.00
6413;BME280;3239;48.714;9.472;2022-09-20T16:44:36;98762.78;;;13.92;100.00
6413;BME280;3239;48.714;9.472;2022-09-20T16:47:04;98765.13;;;13.88;100.00
6413;BME280;3239;48.714;9.472;2022-09-20T16:49:36;98773.41;;;13.75;100.00
6413;BME280;3239;48.714;9.472;2022-09-20T16:52:06;98770.44;;;13.73;100.00
6413;BME280;3239;48.714;9.472;2022-09-20T16:54:33;98768.97;;;13.59;100.00
6413;BME280;3239;48.714;9.472;2022-09-20T16:56:59;98776.91;;;13.50;100.00
6413;BME280;3239;48.714;9.472;2022-09-20T16:59:25;98782.94;;;13.35;100.00
6413;BME280;3239;48.714;9.472;2022-09-20T17:01:51;98790.00;;;13.18;100.00
6413;BME280;3239;48.714;9.472;2022-09-20T17:04:18;98802.75;;;13.02;100.00
6413;BME280;3239;48.714;9.472;2022-09-20T17:06:46;98803.97;;;12.88;100.00
6413;BME280;3239;48.714;9.472;2022-09-20T17:09:14;98821.00;;;12.68;100.00
6413;BME280;3239;48.714;9.472;2022-09-20T17:11:43;98820.13;;;12.60;100.00
6413;BME280;3239;48.714;9.472;2022-09-20T17:14:10;98819.84;;;12.45;100.00
6413;BME280;3239;48.714;9.472;2022-09-20T17:16:39;98828.84;;;12.27;100.00
6413;BME280;3239;48.714;9.472;2022-09-20T17:19:09;98832.91;;;12.21;100.00
6413;BME280;3239;48.714;9.472;2022-09-20T17:21:40;98838.03;;;12.11;100.00
6413;BME280;3239;48.714;9.472;2022-09-20T17:24:08;98850.47;;;11.94;100.00
6413;BME280;3239;48.714;9.472;2022-09-20T17:26:39;98852.31;;;11.86;100.00
6413;BME280;3239;48.714;9.472;2022-09-20T17:29:08;98863.19;;;11.73;100.00
6413;BME280;3239;48.714;9.472;2022-09-20T17:31:40;98867.75;;;11.65;100.00
6413;BME280;3239;48.714;9.472;2022-09-20T17:34:09;98880.81;;;11.53;100.00
6413;BME280;3239;48.714;9.472;2022-09-20T17:36:41;98891.66;;;11.40;100.00
6413;BME280;3239;48.714;9.472;2022-09-20T17:39:08;98891.66;;;11.40;100.00
6413;BME280;3239;48.714;9.472;2022-09-20T17:41:36;98903.19;;;11.33;100.00
6413;BME280;3239;48.714;9.472;2022-09-20T17:44:04;98910.81;;;11.16;100.00
6413;BME280;3239;48.714;9.472;2022-09-20T17:46:36;98912.56;;;11.14;100.00
6413;BME280;3239;48.714;9.472;2022-09-20T17:49:13;98922.81;;;11.08;100.00
6413;BME280;3239;48.714;9.472;2022-09-20T17:51:45;98923.41;;;10.95;100.00
6413;BME280;3239;48.714;9.472;2022-09-20T17:54:12;98932.13;;;10.94;100.00
6413;BME280;3239;48.714;9.472;2022-09-20T17:56:40;98933.63;;;10.95;100.00
6413;BME280;3239;48.714;9.472;2022-09-20T17:59:07;98939.91;;;10.84;100.00
6413;BME280;3239;48.714;9.472;2022-09-20T18:01:35;98951.66;;;10.79;100.00
6413;BME280;3239;48.714;9.472;2022-09-20T18:04:03;98946.19;;;10.74;100.00
6413;BME280;3239;48.714;9.472;2022-09-20T18:09:06;98943.91;;;10.83;100.00
6413;BME280;3239;48.714;9.472;2022-09-20T18:11:42;98938.69;;;10.80;100.00
6413;BME280;3239;48.714;9.472;2022-09-20T18:14:10;98947.19;;;10.71;100.00
6413;BME280;3239;48.714;9.472;2022-09-20T18:16:36;98947.72;;;10.69;100.00
6413;BME280;3239;48.714;9.472;2022-09-20T18:19:06;98955.19;;;10.69;100.00
6413;BME280;3239;48.714;9.472;2022-09-20T18:21:33;98957.94;;;10.63;100.00
6413;BME280;3239;48.714;9.472;2022-09-20T18:24:03;98961.00;;;10.49;100.00
6413;BME280;3239;48.714;9.472;2022-09-20T18:26:30;98966.75;;;10.45;100.00
6413;BME280;3239;48.714;9.472;2022-09-20T18:34:14;98997.69;;;10.35;100.00
6413;BME280;3239;48.714;9.472;2022-09-20T18:36:44;99014.59;;;10.33;100.00
6413;BME280;3239;48.714;9.472;2022-09-20T18:39:11;99021.56;;;10.29;100.00
6413;BME280;3239;48.714;9.472;2022-09-20T18:41:38;99030.81;;;10.20;100.00
6413;BME280;3239;48.714;9.472;2022-09-20T18:44:10;99052.97;;;10.06;100.00
6413;BME280;3239;48.714;9.472;2022-09-20T18:46:38;99066.88;;;9.97;100.00
6413;BME280;3239;48.714;9.472;2022-09-20T18:49:08;99082.84;;;9.93;100.00
6413;BME280;3239;48.714;9.472;2022-09-20T18:51:35;99097.00;;;9.86;100.00
6413;BME280;3239;48.714;9.472;2022-09-20T18:54:01;99106.22;;;9.83;100.00